Time;durP1;ratioP1;P1;durP2;ratioP2;P2;SDS_P1;SDS_P2;PMS_P1;PMS_P2;Temp;Humidity;BMP_temperature;BMP_pressure;BME280_temperature;BME280_humidity;BME280_pressure;Samples;Min_cycle;Max_cycle;Signal;HPM_P1;HPM_P2
2021/09/21 00:00:31;;;;;;;9.47;7.73;;;;;;;9.40;82.46;102782.03;4966863;28;20207;-78
2021/09/21 00:02:57;;;;;;;11.10;7.40;;;;;;;9.43;82.80;102777.09;4982715;28;20208;-76
2021/09/21 00:05:22;;;;;;;10.93;7.90;;;;;;;9.46;83.47;102775.59;4960285;28;20220;-75
2021/09/21 00:07:48;;;;;;;10.03;7.77;;;;;;;9.47;83.73;102782.47;4983182;28;20190;-76
2021/09/21 00:10:13;;;;;;;11.03;8.57;;;;;;;9.42;84.04;102778.78;4975133;28;20192;-76
2021/09/21 00:12:39;;;;;;;10.47;8.20;;;;;;;9.49;82.93;102774.88;4977181;28;20677;-78
2021/09/21 00:15:08;;;;;;;9.80;7.67;;;;;;;9.49;83.36;102775.75;4984714;28;20193;-76
2021/09/21 00:17:34;;;;;;;10.17;8.30;;;;;;;9.43;83.21;102774.53;4960460;28;20582;-75
2021/09/21 00:20:00;;;;;;;9.60;8.07;;;;;;;9.35;82.91;102780.91;4970507;28;20176;-75
2021/09/21 00:22:26;;;;;;;13.07;8.17;;;;;;;9.29;83.06;102773.78;4969423;28;20212;-76
2021/09/21 00:24:51;;;;;;;9.60;7.83;;;;;;;9.24;82.42;102769.19;4974814;28;20288;-75
2021/09/21 00:27:16;;;;;;;9.07;7.80;;;;;;;9.26;82.01;102775.28;4970475;28;20205;-79
2021/09/21 00:29:42;;;;;;;12.77;8.10;;;;;;;9.29;83.09;102778.00;4986734;28;20287;-76
2021/09/21 00:32:13;;;;;;;9.90;7.27;;;;;;;9.25;82.40;102774.41;4991310;28;20220;-75
2021/09/21 00:34:39;;;;;;;8.20;7.30;;;;;;;9.25;83.17;102776.97;4978330;28;20604;-76
2021/09/21 00:37:06;;;;;;;10.43;8.27;;;;;;;9.20;83.29;102782.59;4975060;28;20283;-78
2021/09/21 00:39:31;;;;;;;9.80;7.97;;;;;;;9.25;82.59;102776.97;4983204;28;20214;-75
2021/09/21 00:41:57;;;;;;;10.27;8.20;;;;;;;9.25;83.75;102773.50;4980599;28;20738;-75
2021/09/21 00:44:22;;;;;;;12.50;8.20;;;;;;;9.20;83.46;102777.47;4985135;28;20202;-79
2021/09/21 00:46:48;;;;;;;11.77;8.40;;;;;;;9.14;82.84;102772.03;4979338;28;20196;-77
2021/09/21 00:49:15;;;;;;;9.00;7.00;;;;;;;9.06;83.04;102779.28;4983133;28;20196;-77
2021/09/21 00:51:41;;;;;;;10.83;7.57;;;;;;;8.96;82.30;102768.44;4983756;28;20220;-77
2021/09/21 00:54:06;;;;;;;11.47;7.83;;;;;;;9.00;81.57;102768.72;4981470;28;20668;-76
2021/09/21 00:56:32;;;;;;;10.47;7.80;;;;;;;8.98;82.32;102770.28;4976488;28;20185;-79
2021/09/21 00:58:57;;;;;;;8.13;6.60;;;;;;;8.87;81.74;102776.47;4982066;28;20209;-77
2021/09/21 01:01:23;;;;;;;10.43;7.37;;;;;;;8.73;82.25;102772.25;4992458;28;20252;-76
2021/09/21 01:03:48;;;;;;;10.20;6.47;;;;;;;8.77;81.54;102774.19;4988626;28;20184;-76
2021/09/21 01:06:14;;;;;;;9.10;6.70;;;;;;;8.74;81.88;102773.13;4980337;28;20691;-76
2021/09/21 01:08:41;;;;;;;9.80;7.50;;;;;;;8.63;81.97;102769.97;4981976;28;20208;-79
2021/09/21 01:11:11;;;;;;;8.27;6.60;;;;;;;8.67;81.96;102769.31;4982589;28;20720;-76
2021/09/21 01:13:36;;;;;;;8.37;6.70;;;;;;;8.61;81.19;102773.22;4980489;28;20196;-78
2021/09/21 01:16:02;;;;;;;9.60;6.90;;;;;;;8.55;81.50;102770.31;4972714;28;20278;-76
2021/09/21 01:18:28;;;;;;;10.30;7.10;;;;;;;8.56;81.67;102764.41;4986160;28;20192;-77
2021/09/21 01:21:01;;;;;;;7.70;6.73;;;;;;;8.54;81.03;102769.44;4987070;28;20204;-80
2021/09/21 01:23:27;;;;;;;10.53;7.30;;;;;;;8.44;81.07;102762.00;5009637;28;20270;-77
2021/09/21 01:25:55;;;;;;;7.37;6.43;;;;;;;8.42;81.59;102771.25;4969614;28;20642;-76
2021/09/21 01:28:20;;;;;;;8.90;6.97;;;;;;;8.37;82.41;102767.56;4967645;28;20241;-80
2021/09/21 01:30:46;;;;;;;8.60;6.60;;;;;;;8.32;81.98;102776.63;4967237;28;20348;-76
2021/09/21 01:33:11;;;;;;;10.50;7.20;;;;;;;8.36;81.26;102773.47;4982052;28;20208;-77
2021/09/21 01:35:36;;;;;;;7.60;6.70;;;;;;;8.32;81.58;102774.06;4988943;28;20184;-81
2021/09/21 01:38:02;;;;;;;8.80;7.23;;;;;;;8.24;81.60;102772.72;4951012;28;20813;-78
2021/09/21 01:40:27;;;;;;;8.00;6.63;;;;;;;8.23;81.74;102767.53;4980791;28;20213;-79
2021/09/21 01:42:53;;;;;;;9.77;6.90;;;;;;;8.28;81.74;102767.00;4980387;28;20195;-78
2021/09/21 01:45:19;;;;;;;9.10;6.60;;;;;;;8.25;81.42;102781.28;4999398;28;20189;-76
2021/09/21 01:47:47;;;;;;;8.87;7.60;;;;;;;8.21;83.06;102779.31;4985831;28;20231;-78
2021/09/21 01:52:54;;;;;;;11.17;7.27;;;;;;;8.25;82.38;102766.81;4966416;28;20196;-76
2021/09/21 01:58:16;;;;;;;9.43;7.00;;;;;;;8.24;82.35;102774.41;4991306;28;20187;-79
2021/09/21 02:00:49;;;;;;;9.50;7.80;;;;;;;8.39;84.09;102762.56;4982528;28;20208;-76
2021/09/21 02:03:14;;;;;;;10.43;8.17;;;;;;;8.46;84.35;102767.22;4989079;28;20254;-77
2021/09/21 02:05:40;;;;;;;11.43;8.77;;;;;;;8.53;84.92;102759.13;4989999;28;20196;-81
2021/09/21 02:08:05;;;;;;;12.23;8.50;;;;;;;8.56;85.32;102759.28;4993132;28;20298;-77
2021/09/21 02:10:30;;;;;;;12.87;9.53;;;;;;;8.62;84.69;102755.41;4978268;28;20221;-77
2021/09/21 02:12:56;;;;;;;12.57;9.70;;;;;;;8.69;85.46;102761.75;4988730;28;20196;-80
2021/09/21 02:15:22;;;;;;;12.43;9.57;;;;;;;8.74;86.00;102755.25;4982749;28;20632;-77
2021/09/21 02:17:49;;;;;;;13.70;10.67;;;;;;;8.83;86.25;102741.34;4978066;28;20208;-78
2021/09/21 02:20:14;;;;;;;15.20;11.23;;;;;;;8.89;86.74;102746.78;4976141;28;20216;-77
2021/09/21 02:22:39;;;;;;;15.77;12.20;;;;;;;8.91;87.49;102747.75;4990007;28;20188;-77
2021/09/21 02:25:06;;;;;;;15.23;10.53;;;;;;;8.92;86.76;102753.75;4975906;28;20200;-78
2021/09/21 02:27:31;;;;;;;11.63;9.03;;;;;;;8.92;86.40;102739.31;4978055;28;20212;-80
2021/09/21 02:29:57;;;;;;;7.40;6.23;;;;;;;8.85;86.15;102733.75;4984305;28;20434;-80
2021/09/21 02:32:22;;;;;;;9.20;6.30;;;;;;;8.83;85.55;102743.91;4981055;28;20351;-79
2021/09/21 02:34:47;;;;;;;6.70;6.00;;;;;;;8.89;85.21;102745.94;4961160;28;20204;-77
2021/09/21 02:37:14;;;;;;;8.73;6.20;;;;;;;8.90;84.79;102740.88;4974523;28;20188;-80
2021/09/21 02:39:40;;;;;;;7.47;6.23;;;;;;;8.93;85.63;102745.28;4961061;28;20204;-77
2021/09/21 02:42:06;;;;;;;8.97;6.07;;;;;;;8.99;85.69;102740.53;4989831;28;20664;-77
2021/09/21 02:44:33;;;;;;;9.47;6.10;;;;;;;8.97;85.31;102735.34;4987721;28;20193;-80
2021/09/21 02:46:59;;;;;;;9.50;6.73;;;;;;;8.98;85.90;102737.09;4977876;28;20575;-81
2021/09/21 02:49:24;;;;;;;8.00;6.60;;;;;;;9.00;86.14;102740.63;4977189;28;20200;-77
2021/09/21 02:51:50;;;;;;;8.20;6.43;;;;;;;9.01;85.77;102744.94;4984484;28;20225;-79
2021/09/21 02:54:15;;;;;;;7.23;6.50;;;;;;;9.04;85.78;102757.00;4989816;28;20254;-79
2021/09/21 02:56:40;;;;;;;7.27;6.53;;;;;;;9.06;85.28;102755.38;4992194;28;20228;-77
2021/09/21 02:59:06;;;;;;;7.23;6.13;;;;;;;9.10;85.60;102765.00;4985071;28;20282;-77
2021/09/21 03:01:31;;;;;;;7.43;6.40;;;;;;;9.09;86.25;102776.00;4987134;28;20219;-80
2021/09/21 03:04:00;;;;;;;8.67;6.47;;;;;;;9.10;85.76;102771.00;4985574;28;20192;-77
2021/09/21 03:06:31;;;;;;;9.60;7.37;;;;;;;9.15;85.90;102784.91;4991453;28;20267;-78
2021/09/21 03:09:08;;;;;;;10.50;7.93;;;;;;;9.19;86.29;102791.97;5008204;28;20396;-76
2021/09/21 03:11:40;;;;;;;12.50;9.47;;;;;;;9.24;87.14;102800.75;4989521;28;20219;-76
2021/09/21 03:17:08;;;;;;;12.43;10.33;;;;;;;9.32;86.27;102803.75;4979981;28;20657;-76
2021/09/21 03:19:33;;;;;;;12.53;10.10;;;;;;;9.34;87.29;102802.13;4981684;28;20227;-76
2021/09/21 03:21:59;;;;;;;14.33;11.27;;;;;;;9.37;87.27;102797.22;4955663;28;20201;-80
2021/09/21 03:24:24;;;;;;;14.13;11.27;;;;;;;9.39;87.04;102795.59;4985807;28;20192;-79
2021/09/21 03:26:50;;;;;;;13.63;10.67;;;;;;;9.43;87.13;102794.97;4986613;28;20211;-77
2021/09/21 03:29:15;;;;;;;13.40;11.13;;;;;;;9.48;86.68;102785.88;4984685;28;20211;-76
2021/09/21 03:31:41;;;;;;;13.67;10.93;;;;;;;9.50;86.25;102785.16;4956965;28;20232;-77
2021/09/21 03:34:06;;;;;;;14.73;11.37;;;;;;;9.53;86.49;102782.78;5006862;28;20691;-77
2021/09/21 03:36:31;;;;;;;16.73;11.50;;;;;;;9.54;86.67;102781.13;4975690;28;20218;-78
2021/09/21 03:38:57;;;;;;;14.47;11.37;;;;;;;9.56;86.50;102784.63;4980437;28;20199;-76
2021/09/21 03:41:22;;;;;;;15.67;11.90;;;;;;;9.57;86.66;102782.16;4994679;28;20549;-77
2021/09/21 03:43:48;;;;;;;16.27;11.83;;;;;;;9.61;86.68;102788.31;4991836;28;20204;-76
2021/09/21 03:46:14;;;;;;;14.23;10.83;;;;;;;9.64;86.81;102791.06;4963287;28;20185;-78
2021/09/21 03:48:39;;;;;;;15.73;11.33;;;;;;;9.67;86.64;102797.19;4957408;28;20223;-77
2021/09/21 03:51:04;;;;;;;15.70;11.83;;;;;;;9.69;86.91;102792.19;4973400;28;20602;-78
2021/09/21 03:53:30;;;;;;;16.73;12.00;;;;;;;9.69;86.79;102780.28;4979089;28;20201;-77
2021/09/21 03:55:55;;;;;;;14.37;11.60;;;;;;;9.71;86.85;102777.78;4984612;28;20197;-79
2021/09/21 03:58:20;;;;;;;15.93;11.73;;;;;;;9.74;86.31;102775.41;5002542;28;20201;-77
2021/09/21 04:00:46;;;;;;;16.20;12.10;;;;;;;9.73;87.08;102766.81;4960686;28;20208;-77
2021/09/21 04:03:11;;;;;;;18.97;12.90;;;;;;;9.75;86.99;102774.59;4968536;28;20679;-79
2021/09/21 04:05:36;;;;;;;15.10;11.60;;;;;;;9.76;87.06;102787.47;4988966;28;20208;-77
2021/09/21 04:08:02;;;;;;;18.97;11.93;;;;;;;9.79;87.20;102800.44;4983011;28;20238;-79
2021/09/21 04:10:27;;;;;;;16.50;12.10;;;;;;;9.83;86.82;102806.59;4985697;28;20208;-80
2021/09/21 04:12:52;;;;;;;16.87;11.97;;;;;;;9.85;86.48;102795.63;4990837;28;20673;-79
2021/09/21 04:15:18;;;;;;;19.17;12.37;;;;;;;9.88;86.44;102794.91;4962102;28;20184;-77
2021/09/21 04:17:43;;;;;;;16.17;12.83;;;;;;;9.91;86.89;102797.66;4972744;28;20293;-78
2021/09/21 04:20:09;;;;;;;14.80;12.03;;;;;;;9.93;86.58;102798.59;4995802;28;20573;-78
2021/09/21 04:22:36;;;;;;;15.90;12.33;;;;;;;9.94;86.10;102800.34;4977817;28;20658;-77
2021/09/21 04:25:02;;;;;;;13.77;11.70;;;;;;;9.96;85.71;102799.63;4990935;28;20860;-78
2021/09/21 04:27:28;;;;;;;15.80;12.23;;;;;;;9.97;86.60;102788.63;4980977;28;20202;-79
2021/09/21 04:30:00;;;;;;;15.77;11.63;;;;;;;10.00;86.31;102800.69;4989157;28;20200;-78
2021/09/21 04:32:26;;;;;;;15.77;11.20;;;;;;;10.01;86.19;102795.66;4979105;28;20228;-77
2021/09/21 04:34:51;;;;;;;14.83;12.00;;;;;;;10.03;86.65;102803.41;4983003;28;20325;-78
2021/09/21 04:37:17;;;;;;;15.83;11.60;;;;;;;10.04;86.03;102805.19;4993138;28;20255;-78
2021/09/21 04:39:43;;;;;;;15.73;12.17;;;;;;;10.00;86.29;102793.88;4965987;28;20229;-77
2021/09/21 04:42:09;;;;;;;13.80;11.23;;;;;;;10.00;85.78;102790.47;4986008;28;20608;-77
2021/09/21 04:44:36;;;;;;;14.10;11.30;;;;;;;10.03;85.51;102798.28;5017727;28;20907;-77
2021/09/21 04:47:03;;;;;;;19.10;11.80;;;;;;;10.06;86.29;102794.25;4973056;28;20193;-79
2021/09/21 04:49:29;;;;;;;13.80;11.37;;;;;;;10.08;86.20;102790.09;4984540;28;20223;-77
2021/09/21 04:51:54;;;;;;;14.23;11.63;;;;;;;10.10;85.94;102792.75;4982419;28;20212;-77
2021/09/21 04:54:19;;;;;;;17.63;12.13;;;;;;;10.12;85.84;102796.25;5020473;28;20195;-75
2021/09/21 04:56:45;;;;;;;15.20;11.33;;;;;;;10.14;85.68;102792.09;4958971;28;20543;-79
2021/09/21 04:59:10;;;;;;;14.67;11.70;;;;;;;10.15;85.46;102794.75;4973553;28;20208;-79
2021/09/21 05:01:36;;;;;;;17.47;11.77;;;;;;;10.16;86.02;102791.38;4982088;28;20209;-79
2021/09/21 05:04:02;;;;;;;16.07;11.63;;;;;;;10.17;85.42;102793.13;4976612;28;20583;-80
2021/09/21 05:06:28;;;;;;;13.87;10.93;;;;;;;10.19;85.53;102804.31;4984803;28;20223;-80
2021/09/21 05:08:53;;;;;;;13.37;11.47;;;;;;;10.21;85.94;102809.53;4982050;28;20207;-79
2021/09/21 05:11:19;;;;;;;15.53;11.90;;;;;;;10.21;86.01;102806.97;4971064;28;20220;-79
2021/09/21 05:13:44;;;;;;;12.27;10.50;;;;;;;10.21;86.47;102809.53;4983266;28;20700;-79
2021/09/21 05:16:09;;;;;;;14.07;11.10;;;;;;;10.24;86.39;102814.81;4991893;28;20597;-78
2021/09/21 05:18:35;;;;;;;13.20;11.47;;;;;;;10.26;86.11;102816.66;4977168;28;20196;-78
2021/09/21 05:21:00;;;;;;;12.80;10.73;;;;;;;10.25;85.99;102806.31;4973066;28;20214;-81
2021/09/21 05:23:26;;;;;;;15.97;11.83;;;;;;;10.15;86.31;102807.53;5000484;28;20204;-78
2021/09/21 05:25:51;;;;;;;14.93;11.37;;;;;;;10.16;85.85;102826.31;4975571;28;20699;-79
2021/09/21 05:28:16;;;;;;;13.13;10.77;;;;;;;10.18;86.37;102828.16;5000089;28;20219;-80
2021/09/21 05:30:42;;;;;;;16.40;11.20;;;;;;;10.19;86.39;102826.50;4966125;28;20219;-79
2021/09/21 05:33:07;;;;;;;15.70;11.70;;;;;;;10.15;86.23;102812.66;4961438;28;20208;-80
2021/09/21 05:35:33;;;;;;;13.93;10.97;;;;;;;10.17;86.01;102818.72;4962243;28;20197;-81
2021/09/21 05:37:58;;;;;;;13.60;11.47;;;;;;;10.21;85.99;102817.22;4960515;28;20225;-79
2021/09/21 05:40:25;;;;;;;19.00;13.07;;;;;;;10.18;86.54;102806.81;4960659;28;20232;-79
2021/09/21 05:42:50;;;;;;;14.30;11.63;;;;;;;10.24;86.11;102818.28;4981776;28;20267;-79
2021/09/21 05:45:15;;;;;;;16.90;11.43;;;;;;;10.18;86.46;102823.03;4988099;28;20239;-80
2021/09/21 05:47:42;;;;;;;13.50;10.67;;;;;;;10.26;85.79;102826.00;4993122;28;20200;-79
2021/09/21 05:50:10;;;;;;;16.10;11.10;;;;;;;10.26;86.31;102831.13;5002570;28;20188;-81
2021/09/21 05:52:35;;;;;;;14.33;10.50;;;;;;;10.27;85.78;102838.03;4985958;28;20219;-80
2021/09/21 05:55:01;;;;;;;13.73;11.13;;;;;;;10.27;86.10;102835.47;4998278;28;20197;-80
2021/09/21 05:57:26;;;;;;;15.30;11.33;;;;;;;10.30;85.59;102838.16;4965312;28;20228;-80
2021/09/21 05:59:51;;;;;;;16.47;10.77;;;;;;;10.33;85.50;102844.31;4982190;28;20188;-79
2021/09/21 06:02:17;;;;;;;13.23;10.57;;;;;;;10.33;85.41;102840.91;4984351;28;20299;-80
2021/09/21 06:04:42;;;;;;;14.27;11.23;;;;;;;10.37;85.07;102842.81;5001331;28;20223;-78
2021/09/21 06:07:08;;;;;;;15.13;10.73;;;;;;;10.39;84.98;102838.66;4986935;28;20189;-81
2021/09/21 06:09:33;;;;;;;16.60;11.07;;;;;;;10.42;85.02;102844.81;4979857;28;20639;-80
2021/09/21 06:11:59;;;;;;;14.67;11.27;;;;;;;10.47;84.81;102845.91;4985720;28;20704;-79
2021/09/21 06:14:24;;;;;;;17.30;11.50;;;;;;;10.44;85.78;102848.34;5018488;28;20186;-80
2021/09/21 06:16:49;;;;;;;15.77;10.90;;;;;;;10.52;85.64;102848.72;4977368;28;20222;-82
2021/09/21 06:19:15;;;;;;;12.73;10.23;;;;;;;10.44;85.81;102845.78;4993435;28;20804;-79
2021/09/21 06:21:40;;;;;;;18.27;12.03;;;;;;;10.46;85.88;102849.28;4963394;28;20911;-79
2021/09/21 06:24:05;;;;;;;14.20;11.30;;;;;;;10.55;84.99;102843.78;4978228;28;20671;-80
2021/09/21 06:26:32;;;;;;;14.67;11.00;;;;;;;10.63;84.74;102843.38;4962350;28;20220;-80
2021/09/21 06:28:59;;;;;;;13.73;10.27;;;;;;;10.70;84.45;102853.09;4963115;28;20228;-80
2021/09/21 06:31:26;;;;;;;13.83;11.23;;;;;;;10.73;84.96;102860.09;4979294;28;20215;-80
2021/09/21 06:33:51;;;;;;;14.73;11.73;;;;;;;10.84;84.17;102862.41;4992295;28;20586;-79
2021/09/21 06:36:17;;;;;;;13.80;10.13;;;;;;;10.83;84.38;102865.75;4980493;28;20781;-80
2021/09/21 06:38:42;;;;;;;12.77;9.53;;;;;;;10.89;84.22;102867.75;4961801;28;20205;-79
2021/09/21 06:41:08;;;;;;;18.60;11.07;;;;;;;10.88;84.90;102866.84;4977812;28;20567;-80
2021/09/21 06:43:33;;;;;;;13.23;10.30;;;;;;;10.91;84.57;102867.00;4963288;28;20220;-80
2021/09/21 06:45:58;;;;;;;15.10;10.30;;;;;;;10.95;84.29;102868.94;4961471;28;20193;-79
2021/09/21 06:48:24;;;;;;;14.77;11.10;;;;;;;11.06;84.17;102869.47;4962942;28;20208;-80
2021/09/21 06:50:51;;;;;;;12.30;10.37;;;;;;;11.09;84.32;102867.94;4974117;28;20228;-81
2021/09/21 06:53:16;;;;;;;15.07;10.80;;;;;;;11.09;84.04;102877.28;5008848;28;20212;-79
2021/09/21 06:55:41;;;;;;;14.23;11.43;;;;;;;11.16;83.96;102882.81;4979301;28;20180;-79
2021/09/21 06:58:07;;;;;;;15.00;10.93;;;;;;;11.17;83.78;102869.22;4990089;28;20654;-78
2021/09/21 07:00:35;;;;;;;15.20;10.83;;;;;;;11.32;83.71;102876.75;5003125;28;20219;-79
2021/09/21 07:03:01;;;;;;;14.10;9.83;;;;;;;11.39;83.36;102877.13;4995879;28;20198;-79
2021/09/21 07:05:26;;;;;;;15.30;10.63;;;;;;;11.47;82.81;102869.81;4998077;28;20247;-79
2021/09/21 07:07:52;;;;;;;12.70;10.40;;;;;;;11.55;82.56;102874.50;4967970;28;20192;-77
2021/09/21 07:10:18;;;;;;;13.37;10.17;;;;;;;11.49;82.46;102874.22;4989235;28;20882;-78
2021/09/21 07:12:44;;;;;;;14.73;10.90;;;;;;;11.53;82.84;102880.38;4999436;28;20220;-78
2021/09/21 07:15:10;;;;;;;12.80;9.83;;;;;;;11.53;81.87;102868.41;4997941;28;20539;-78
2021/09/21 07:17:36;;;;;;;13.33;9.97;;;;;;;11.58;82.10;102872.09;4992360;28;20344;-79
2021/09/21 07:20:01;;;;;;;11.73;9.93;;;;;;;11.62;81.50;102871.44;4971771;28;20224;-78
2021/09/21 07:22:29;;;;;;;13.10;10.47;;;;;;;11.72;80.71;102860.81;4978161;28;20185;-80
2021/09/21 07:24:54;;;;;;;12.87;9.43;;;;;;;11.88;80.54;102868.41;4977746;28;20292;-80
2021/09/21 07:27:20;;;;;;;12.47;9.73;;;;;;;12.06;79.67;102865.81;4958524;28;20212;-81
2021/09/21 07:29:45;;;;;;;13.30;9.70;;;;;;;12.15;80.43;102871.38;4985157;28;20770;-78
2021/09/21 07:32:10;;;;;;;11.97;9.70;;;;;;;12.11;79.56;102872.03;4977426;28;20668;-80
2021/09/21 07:34:36;;;;;;;12.03;10.27;;;;;;;12.15;79.35;102876.50;4977396;28;20573;-79
2021/09/21 07:37:02;;;;;;;12.13;10.27;;;;;;;12.20;79.41;102883.63;4975386;28;20569;-78
2021/09/21 07:39:28;;;;;;;10.53;9.40;;;;;;;12.20;78.05;102890.44;5012013;28;20196;-78
2021/09/21 07:41:54;;;;;;;9.47;8.40;;;;;;;12.19;78.06;102889.56;4981824;28;20207;-79
2021/09/21 07:44:19;;;;;;;10.93;8.67;;;;;;;12.30;77.41;102895.22;4994106;28;20206;-79
2021/09/21 07:46:44;;;;;;;13.00;8.63;;;;;;;12.38;76.16;102888.69;4988691;28;20188;-80
2021/09/21 07:49:10;;;;;;;11.13;8.77;;;;;;;12.51;76.55;102897.03;4961698;28;20663;-79
2021/09/21 07:51:35;;;;;;;11.53;9.00;;;;;;;12.68;76.46;102895.22;4957049;28;20276;-80
2021/09/21 07:54:01;;;;;;;11.47;8.60;;;;;;;12.74;73.99;102898.94;4957232;28;20201;-78
2021/09/21 07:56:28;;;;;;;12.93;9.33;;;;;;;12.80;74.45;102904.31;4957382;29;20201;-79
2021/09/21 07:58:53;;;;;;;12.73;8.07;;;;;;;12.84;73.96;102900.19;4975808;28;20276;-81
2021/09/21 08:01:19;;;;;;;14.67;8.87;;;;;;;12.81;75.26;102916.38;4996368;28;20232;-80
2021/09/21 08:03:44;;;;;;;12.33;8.70;;;;;;;12.76;76.40;102917.00;4995485;28;20206;-80
2021/09/21 08:06:10;;;;;;;11.33;9.33;;;;;;;12.70;76.61;102912.47;4993589;28;20237;-80
2021/09/21 08:08:39;;;;;;;12.83;9.80;;;;;;;12.64;78.55;102930.19;4975554;28;20227;-79
2021/09/21 08:11:07;;;;;;;16.50;11.03;;;;;;;12.58;79.88;102934.19;4991134;28;20219;-81
2021/09/21 08:13:33;;;;;;;13.13;10.17;;;;;;;12.48;81.06;102937.13;4975219;28;20228;-80
2021/09/21 08:15:58;;;;;;;16.63;11.03;;;;;;;12.31;81.80;102948.34;4986753;28;20267;-81
2021/09/21 08:18:24;;;;;;;13.30;10.83;;;;;;;12.21;82.55;102941.88;4977534;28;20188;-80
2021/09/21 08:20:49;;;;;;;13.00;10.03;;;;;;;12.19;82.54;102940.94;4979395;28;20850;-81
2021/09/21 08:23:15;;;;;;;13.23;10.10;;;;;;;12.22;82.91;102942.78;4989847;28;20188;-77
2021/09/21 08:25:41;;;;;;;13.23;9.67;;;;;;;12.13;83.05;102943.19;4984064;28;20238;-80
2021/09/21 08:28:06;;;;;;;12.63;9.20;;;;;;;12.12;83.68;102941.44;4998330;28;20263;-83
2021/09/21 08:30:33;;;;;;;13.63;10.70;;;;;;;12.14;84.06;102945.00;5012606;28;20223;-80
2021/09/21 08:33:00;;;;;;;12.07;8.90;;;;;;;12.17;84.03;102946.81;4981977;28;20728;-81
2021/09/21 08:35:26;;;;;;;11.87;9.87;;;;;;;12.22;83.79;102942.78;4974304;28;20216;-81
2021/09/21 08:37:52;;;;;;;14.50;10.40;;;;;;;12.25;83.65;102935.19;4974094;28;20192;-80
2021/09/21 08:40:17;;;;;;;13.30;10.57;;;;;;;12.27;84.27;102939.63;4975811;28;20246;-80
2021/09/21 08:42:43;;;;;;;13.57;10.10;;;;;;;12.34;84.37;102930.47;4991889;28;20187;-81
2021/09/21 08:45:09;;;;;;;12.03;9.60;;;;;;;12.44;83.98;102920.69;4994773;28;20271;-78
2021/09/21 08:47:36;;;;;;;13.67;9.17;;;;;;;12.42;83.51;102916.28;5003142;28;20546;-77
2021/09/21 08:50:03;;;;;;;12.83;10.07;;;;;;;12.55;83.64;102918.59;4983340;28;20208;-81
2021/09/21 08:52:29;;;;;;;13.00;9.70;;;;;;;12.34;82.99;102915.94;4972281;28;20220;-82
2021/09/21 08:54:54;;;;;;;11.77;9.83;;;;;;;12.33;83.42;102913.31;4989412;28;20418;-79
2021/09/21 08:57:20;;;;;;;14.10;10.23;;;;;;;12.26;83.90;102912.13;4973480;28;20668;-80
2021/09/21 08:59:51;;;;;;;13.83;11.37;;;;;;;12.40;83.77;102899.94;4974865;28;20185;-80
2021/09/21 09:02:17;;;;;;;12.50;10.20;;;;;;;12.51;83.60;102899.59;5023617;28;20205;-80
2021/09/21 09:04:54;;;;;;;13.77;10.57;;;;;;;12.55;84.20;102903.19;4996325;28;20175;-80
2021/09/21 09:07:19;;;;;;;13.37;11.17;;;;;;;12.54;83.63;102898.88;4972017;28;20239;-79
2021/09/21 09:09:44;;;;;;;15.50;12.07;;;;;;;12.69;83.12;102905.56;4975759;28;20199;-80
2021/09/21 09:12:10;;;;;;;16.80;12.37;;;;;;;12.63;82.82;102906.97;5007295;28;20267;-81
2021/09/21 09:14:39;;;;;;;15.57;11.90;;;;;;;12.60;83.25;102901.69;4976450;28;20291;-81
2021/09/21 09:17:08;;;;;;;14.77;11.73;;;;;;;12.70;83.20;102894.47;4994736;28;20676;-81
2021/09/21 09:19:36;;;;;;;15.37;12.40;;;;;;;12.54;83.81;102907.44;4990568;28;20188;-80
2021/09/21 09:22:05;;;;;;;14.77;12.40;;;;;;;12.53;83.96;102897.97;4976526;28;20212;-79
2021/09/21 09:24:30;;;;;;;15.30;12.60;;;;;;;12.62;83.85;102889.78;5028182;28;20552;-80
2021/09/21 09:26:56;;;;;;;15.60;12.43;;;;;;;12.48;83.36;102899.47;4977022;28;20200;-80
2021/09/21 09:29:21;;;;;;;17.73;13.73;;;;;;;12.60;83.11;102900.03;5024437;28;20205;-81
2021/09/21 09:31:47;;;;;;;16.27;14.17;;;;;;;12.52;83.22;102898.78;5005927;28;20247;-81
2021/09/21 09:34:21;;;;;;;16.13;14.03;;;;;;;12.60;84.02;102909.41;5008935;28;20199;-79
2021/09/21 09:36:52;;;;;;;17.10;12.90;;;;;;;12.58;82.61;102900.75;5012356;28;20767;-81
2021/09/21 09:39:20;;;;;;;15.93;12.03;;;;;;;12.67;82.89;102904.59;5006685;28;20215;-81
2021/09/21 09:41:47;;;;;;;14.70;11.97;;;;;;;12.61;82.80;102903.44;4983207;28;20201;-81
2021/09/21 09:44:15;;;;;;;16.40;12.00;;;;;;;12.58;82.69;102918.75;4991088;28;20223;-79
2021/09/21 09:47:03;;;;;;;14.33;11.17;;;;;;;12.51;81.89;102925.31;4976351;28;20192;-81
2021/09/21 09:49:30;;;;;;;13.77;11.03;;;;;;;12.55;82.69;102923.75;5008835;28;20196;-78
2021/09/21 09:52:05;;;;;;;13.87;11.20;;;;;;;12.50;82.84;102923.53;4974963;28;20221;-79
2021/09/21 09:54:31;;;;;;;17.27;11.87;;;;;;;12.56;83.07;102928.06;4977044;28;20195;-79
2021/09/21 09:56:57;;;;;;;14.93;11.97;;;;;;;12.61;82.08;102931.72;4994848;28;20198;-79
2021/09/21 09:59:23;;;;;;;15.83;11.47;;;;;;;12.59;81.74;102920.50;4993775;28;20199;-79
2021/09/21 10:01:48;;;;;;;13.40;10.93;;;;;;;12.75;82.76;102921.25;5002614;28;20287;-80
2021/09/21 10:04:14;;;;;;;15.80;11.37;;;;;;;12.84;82.01;102913.03;4995089;28;20227;-81
2021/09/21 10:06:40;;;;;;;14.73;11.37;;;;;;;13.05;82.24;102906.28;5006292;28;20241;-81
2021/09/21 10:09:08;;;;;;;15.13;11.13;;;;;;;12.91;81.44;102900.50;4983404;28;20839;-78
2021/09/21 10:11:34;;;;;;;14.83;10.97;;;;;;;13.04;80.96;102901.97;5032989;28;20270;-80
2021/09/21 10:14:02;;;;;;;13.00;10.47;;;;;;;12.95;80.52;102892.13;5023972;28;20196;-79
2021/09/21 10:16:28;;;;;;;13.73;10.40;;;;;;;13.05;79.98;102893.44;4996282;28;20248;-80
2021/09/21 10:18:54;;;;;;;11.73;9.67;;;;;;;13.32;78.12;102885.97;4989449;28;20176;-80
2021/09/21 10:21:38;;;;;;;13.30;9.93;;;;;;;13.47;78.09;102881.44;4998911;28;20195;-79
2021/09/21 10:24:06;;;;;;;10.50;8.90;;;;;;;14.07;75.86;102876.09;4999325;28;20184;-79
2021/09/21 10:26:39;;;;;;;13.37;9.83;;;;;;;14.19;74.72;102874.00;5014669;28;20203;-80
2021/09/21 10:29:04;;;;;;;11.90;8.77;;;;;;;14.11;75.36;102877.97;5007114;28;20285;-80
2021/09/21 10:31:30;;;;;;;9.67;8.60;;;;;;;13.98;74.52;102879.22;4990718;28;20644;-79
2021/09/21 10:33:56;;;;;;;11.30;8.60;;;;;;;13.80;73.82;102880.19;5010577;28;20192;-81
2021/09/21 10:36:29;;;;;;;9.37;8.37;;;;;;;13.97;75.36;102869.75;5013735;28;20197;-80
2021/09/21 10:39:08;;;;;;;9.40;7.60;;;;;;;14.09;74.75;102859.03;4988376;28;20251;-80
2021/09/21 10:42:10;;;;;;;10.60;8.03;;;;;;;14.16;75.11;102858.41;4973994;28;20244;-81
2021/09/21 10:44:47;;;;;;;9.87;8.07;;;;;;;14.18;73.70;102860.22;4976620;28;20204;-80
2021/09/21 10:47:29;;;;;;;9.10;7.30;;;;;;;14.09;73.42;102857.31;4975679;28;20204;-80
2021/09/21 10:50:16;;;;;;;8.40;7.50;;;;;;;14.20;74.07;102858.63;5019178;28;20249;-81
2021/09/21 10:52:42;;;;;;;9.80;8.10;;;;;;;14.19;74.04;102854.28;4987359;28;20223;-80
2021/09/21 10:55:12;;;;;;;10.23;8.03;;;;;;;14.26;73.46;102855.38;5011789;28;20218;-79
2021/09/21 10:57:40;;;;;;;9.27;7.60;;;;;;;14.40;74.41;102862.81;4991499;28;20188;-80
2021/09/21 11:00:13;;;;;;;8.73;7.47;;;;;;;14.54;73.97;102864.19;4979457;28;20397;-80
2021/09/21 11:02:40;;;;;;;7.87;6.80;;;;;;;14.66;72.99;102862.06;4979638;28;20760;-80
2021/09/21 11:05:15;;;;;;;10.23;7.73;;;;;;;14.84;71.63;102857.53;4978617;28;20287;-80
2021/09/21 11:07:57;;;;;;;9.67;8.17;;;;;;;15.07;71.80;102858.31;4980450;28;20192;-80
2021/09/21 11:10:31;;;;;;;11.10;7.27;;;;;;;15.21;70.23;102846.72;4990433;28;20217;-79
2021/09/21 11:12:57;;;;;;;8.47;7.17;;;;;;;15.46;69.74;102852.75;4977311;28;20204;-78
2021/09/21 11:15:26;;;;;;;8.20;7.27;;;;;;;15.69;68.98;102841.44;4978487;28;20276;-79
2021/09/21 11:18:06;;;;;;;7.77;6.50;;;;;;;15.68;69.03;102841.38;4979315;28;20197;-80
2021/09/21 11:20:33;;;;;;;7.97;6.87;;;;;;;15.57;69.16;102825.56;5008322;28;20700;-79
2021/09/21 11:23:01;;;;;;;9.50;6.93;;;;;;;15.87;69.44;102820.44;4982453;28;20260;-81